Time;durP1;ratioP1;P1;durP2;ratioP2;P2;SDS_P1;SDS_P2;PMS_P1;PMS_P2;Temp;Humidity;BMP_temperature;BMP_pressure;BME280_temperature;BME280_humidity;BME280_pressure;Samples;Min_cycle;Max_cycle;Signal;HPM_P1;HPM_P2
2022/01/30 00:00:56;;;;;;;;;;;;;;;28.59;56.21;101029.19;5011172;28;69904;-37
2022/01/30 00:03:26;;;;;;;7.38;6.38;;;;;;;28.80;56.11;101031.72;5013600;28;65606;-35
2022/01/30 00:05:57;;;;;;;6.68;6.18;;;;;;;28.85;56.23;101029.25;5019382;28;70428;-35
2022/01/30 00:08:29;;;;;;;6.88;6.22;;;;;;;28.88;56.21;101039.66;5017487;28;66719;-34
2022/01/30 00:11:07;;;;;;;7.70;6.45;;;;;;;28.90;56.94;101040.28;5012946;28;70008;-34
2022/01/30 00:13:37;;;;;;;16.00;8.02;;;;;;;28.95;58.68;101045.91;5018585;28;66440;-35
2022/01/30 00:16:10;;;;;;;14.70;9.45;;;;;;;29.02;60.02;101047.78;5016657;28;70396;-36
2022/01/30 00:18:49;;;;;;;13.07;9.43;;;;;;;29.10;60.48;101058.44;5014569;28;65833;-36
2022/01/30 00:26:33;;;;;;;13.32;10.15;;;;;;;29.27;62.88;101065.13;5017188;28;70598;-36
2022/01/30 00:29:04;;;;;;;17.27;10.40;;;;;;;29.33;62.97;101075.09;5012989;28;65848;-37
2022/01/30 00:31:37;;;;;;;16.27;10.25;;;;;;;29.35;63.46;101078.44;5001520;28;69312;-36
2022/01/30 00:34:27;;;;;;;18.98;10.57;;;;;;;29.33;63.52;101069.69;5015759;28;65754;-36
2022/01/30 00:37:00;;;;;;;11.80;10.48;;;;;;;29.45;63.51;101077.19;5017484;28;70102;-36
2022/01/30 00:39:30;;;;;;;16.20;10.90;;;;;;;29.49;63.80;101083.88;5012247;28;66686;-36
2022/01/30 00:42:01;;;;;;;17.63;11.10;;;;;;;29.48;63.84;101079.53;5017641;28;70373;-37
2022/01/30 00:44:32;;;;;;;22.63;10.25;;;;;;;29.48;63.96;101082.22;5018137;28;65450;-36
2022/01/30 00:47:03;;;;;;;15.52;9.93;;;;;;;29.55;64.03;101083.03;5016227;28;70102;-36
2022/01/30 00:49:34;;;;;;;18.63;11.00;;;;;;;29.58;64.38;101090.72;5011880;28;65913;-37
2022/01/30 00:52:05;;;;;;;15.32;10.07;;;;;;;29.64;64.34;101102.63;5016350;28;69358;-36
2022/01/30 00:54:35;;;;;;;12.90;10.85;;;;;;;29.67;64.54;101111.19;5011223;28;66027;-36
2022/01/30 00:57:06;;;;;;;14.18;10.30;;;;;;;29.68;64.71;101115.53;4997938;28;69662;-36
2022/01/30 00:59:37;;;;;;;19.02;10.70;;;;;;;29.72;64.88;101122.19;5012809;28;66034;-36
2022/01/30 01:02:07;;;;;;;18.13;10.70;;;;;;;29.73;65.17;101134.69;5004753;28;70378;-36
2022/01/30 01:04:39;;;;;;;20.90;9.93;;;;;;;29.70;65.27;101129.69;4996346;28;65266;-38
2022/01/30 01:07:15;;;;;;;22.08;10.15;;;;;;;29.75;65.10;101146.09;5012217;28;69146;-37
2022/01/30 01:10:15;;;;;;;13.20;9.95;;;;;;;29.74;65.09;101146.31;5008783;28;66291;-36
2022/01/30 01:23:37;;;;;;;15.80;9.77;;;;;;;29.77;65.31;101160.25;5010494;28;70213;-38
2022/01/30 01:26:09;;;;;;;23.70;9.27;;;;;;;29.77;65.89;101157.53;5014157;28;66156;-37
2022/01/30 01:28:40;;;;;;;15.50;10.02;;;;;;;29.75;66.08;101154.22;5012805;28;69318;-36
2022/01/30 01:31:11;;;;;;;14.20;9.57;;;;;;;29.80;65.58;101167.94;5012816;28;67113;-34
2022/01/30 01:34:00;;;;;;;19.55;9.73;;;;;;;29.80;65.48;101162.53;5011104;28;70538;-35
2022/01/30 01:36:31;;;;;;;17.17;9.85;;;;;;;29.75;65.78;101148.78;5010762;28;65622;-35
2022/01/30 01:39:01;;;;;;;22.30;10.07;;;;;;;29.83;65.78;101161.28;5011564;28;69315;-35
2022/01/30 01:41:33;;;;;;;15.48;9.20;;;;;;;29.79;66.03;101152.78;5006394;28;66047;-36
2022/01/30 01:44:13;;;;;;;10.52;9.15;;;;;;;29.78;65.99;101153.81;5006573;28;69898;-36
2022/01/30 01:46:45;;;;;;;11.10;9.48;;;;;;;29.87;66.73;101167.97;5004604;28;66723;-35
2022/01/30 01:49:21;;;;;;;19.02;10.10;;;;;;;29.87;66.04;101172.56;5009088;28;69362;-33
2022/01/30 01:52:13;;;;;;;57.05;37.30;;;;;;;29.90;65.55;101172.13;5003456;28;66975;-33
2022/01/30 01:54:43;;;;;;;34.75;20.65;;;;;;;29.89;66.03;101170.44;5019844;28;70530;-34
2022/01/30 01:57:14;;;;;;;27.03;16.33;;;;;;;29.84;65.82;101177.31;5009949;28;66261;-33
2022/01/30 01:59:52;;;;;;;26.52;15.05;;;;;;;29.79;66.46;101166.28;4987959;28;70565;-33
2022/01/30 02:02:40;;;;;;;19.48;12.80;;;;;;;29.82;66.61;101173.16;5011051;28;65441;-33
2022/01/30 02:05:11;;;;;;;18.20;12.23;;;;;;;29.82;66.84;101178.56;4992672;28;70007;-34
2022/01/30 02:10:39;;;;;;;21.75;12.75;;;;;;;29.80;66.58;101177.94;5011843;28;69759;-33
2022/01/30 02:27:47;;;;;;;24.10;13.65;;;;;;;29.77;67.36;101165.66;5004117;28;70617;-33
2022/01/30 02:30:20;;;;;;;23.05;13.93;;;;;;;29.88;66.98;101174.22;5012177;28;67167;-34
2022/01/30 02:32:51;;;;;;;21.65;12.85;;;;;;;29.91;66.87;101179.19;5010645;28;70368;-33
2022/01/30 02:35:22;;;;;;;29.13;15.73;;;;;;;29.93;67.61;101182.53;5010823;28;65704;-33
2022/01/30 02:37:54;;;;;;;37.28;18.77;;;;;;;29.94;67.33;101184.19;5026749;28;68777;-33
2022/01/30 02:40:25;;;;;;;35.47;20.02;;;;;;;29.97;66.93;101184.59;5011973;28;65387;-33
2022/01/30 02:42:56;;;;;;;35.28;20.30;;;;;;;30.00;66.93;101188.78;5011548;28;68845;-33
2022/01/30 02:45:30;;;;;;;33.00;20.60;;;;;;;30.01;67.29;101187.75;5012497;28;66506;-33
2022/01/30 02:53:13;;;;;;;28.08;18.30;;;;;;;30.09;67.01;101176.72;5008545;28;69842;-33
2022/01/30 02:55:44;;;;;;;29.10;17.00;;;;;;;29.86;66.94;101135.72;5013466;28;65828;-33
2022/01/30 02:58:15;;;;;;;25.65;16.30;;;;;;;30.12;66.51;101165.47;5009630;28;70124;-33
2022/01/30 03:00:46;;;;;;;30.30;14.10;;;;;;;30.09;66.84;101149.66;4994475;28;64893;-33
2022/01/30 03:03:16;;;;;;;25.67;14.48;;;;;;;30.15;66.50;101162.34;5012673;28;69665;-32
2022/01/30 03:05:48;;;;;;;19.55;14.27;;;;;;;30.12;66.44;101149.25;5012259;28;66512;-33
2022/01/30 03:08:18;;;;;;;34.70;14.75;;;;;;;30.20;66.80;101151.75;5009241;28;70284;-33
2022/01/30 03:10:49;;;;;;;20.90;14.38;;;;;;;30.24;66.63;101157.59;5012835;28;65394;-35
2022/01/30 03:13:20;;;;;;;23.27;13.35;;;;;;;30.18;66.70;101143.00;5014496;28;69199;-33
2022/01/30 03:15:51;;;;;;;49.20;33.55;;;;;;;30.28;66.57;101151.56;5013733;28;65473;-33
2022/01/30 03:18:21;;;;;;;60.42;42.30;;;;;;;30.33;66.39;101150.09;5013019;28;69552;-33
2022/01/30 03:20:51;;;;;;;46.67;32.33;;;;;;;30.29;66.42;101141.56;5006522;28;67239;-33
2022/01/30 03:23:22;;;;;;;39.17;24.55;;;;;;;30.40;66.34;101146.34;5006255;28;69928;-33
2022/01/30 03:26:01;;;;;;;35.55;22.27;;;;;;;30.41;66.35;101141.75;5012754;28;66566;-33
2022/01/30 03:29:04;;;;;;;29.67;19.55;;;;;;;30.42;65.47;101127.16;4989607;28;70029;-33
2022/01/30 03:31:42;;;;;;;32.35;18.95;;;;;;;30.20;65.46;101085.94;5012955;28;66676;-33
2022/01/30 03:34:14;;;;;;;26.65;19.58;;;;;;;30.49;65.66;101125.28;4995685;28;69149;-35
2022/01/30 03:36:51;;;;;;;34.85;19.35;;;;;;;30.49;65.68;101118.00;5014308;28;66225;-33
2022/01/30 03:39:24;;;;;;;31.95;19.08;;;;;;;30.49;66.09;101118.00;5014039;28;70210;-34
2022/01/30 03:41:54;;;;;;;27.50;18.83;;;;;;;30.57;66.01;101125.06;5012194;28;65433;-34
2022/01/30 03:44:24;;;;;;;25.65;17.50;;;;;;;30.59;65.80;101120.28;5012499;28;68759;-35
2022/01/30 03:46:55;;;;;;;27.08;18.83;;;;;;;30.63;66.57;101115.25;5013268;28;66893;-34
2022/01/30 03:49:28;;;;;;;25.75;17.23;;;;;;;30.64;66.65;101112.31;4980251;28;69921;-34
2022/01/30 03:51:59;;;;;;;28.80;18.17;;;;;;;30.70;65.80;101113.34;5010056;28;65472;-34
2022/01/30 03:54:33;;;;;;;28.63;16.98;;;;;;;30.68;66.33;101094.63;4987887;28;69871;-34
2022/01/30 03:57:05;;;;;;;33.60;18.05;;;;;;;30.77;66.28;101095.19;5027259;28;67114;-33
2022/01/30 03:59:38;;;;;;;23.08;17.58;;;;;;;30.80;66.20;101089.38;5008390;28;70849;-34
2022/01/30 04:02:08;;;;;;;27.30;17.77;;;;;;;30.81;65.58;101082.09;5008610;28;66343;-34
2022/01/30 04:04:39;;;;;;;26.83;17.92;;;;;;;30.84;65.56;101082.50;5010893;28;70572;-34
2022/01/30 04:07:10;;;;;;;32.10;18.42;;;;;;;30.86;65.08;101084.97;5013959;28;66242;-34
2022/01/30 04:09:56;;;;;;;21.73;16.25;;;;;;;30.80;64.98;101073.13;5009185;28;69433;-34
2022/01/30 04:12:40;;;;;;;29.20;17.90;;;;;;;30.89;65.05;101073.72;5003544;28;66390;-34
2022/01/30 04:15:23;;;;;;;23.02;18.25;;;;;;;30.86;64.69;101063.31;4999346;28;69702;-34
2022/01/30 04:18:06;;;;;;;30.63;17.92;;;;;;;30.90;65.04;101061.84;5013882;28;66307;-33
2022/01/30 04:20:42;;;;;;;29.65;17.83;;;;;;;30.94;64.64;101060.34;5007101;28;70472;-34
2022/01/30 04:23:25;;;;;;;27.33;18.45;;;;;;;30.95;64.88;101062.00;5006611;28;66329;-33
2022/01/30 04:26:23;;;;;;;29.60;19.00;;;;;;;30.96;65.54;101063.69;5014937;28;69091;-34
2022/01/30 04:29:19;;;;;;;29.65;19.50;;;;;;;30.99;65.29;101051.59;5011785;28;66018;-33
2022/01/30 04:32:13;;;;;;;27.60;19.60;;;;;;;30.97;65.97;101042.84;5012073;28;70543;-33
2022/01/30 04:35:19;;;;;;;29.98;20.23;;;;;;;31.01;66.23;101034.06;5009243;28;64788;-33
2022/01/30 04:38:25;;;;;;;26.52;19.70;;;;;;;31.01;65.50;101034.06;5004672;28;69379;-34
2022/01/30 04:41:28;;;;;;;30.80;19.83;;;;;;;31.00;65.04;101026.97;5005744;28;66139;-33
2022/01/30 04:59:08;;;;;;;39.58;28.15;;;;;;;31.19;64.67;100997.28;5023250;28;67067;-33
2022/01/30 05:08:12;;;;;;;53.33;36.00;;;;;;;31.13;64.63;100970.00;5013896;28;69768;-33
2022/01/30 05:10:54;;;;;;;52.78;38.78;;;;;;;31.21;64.28;100973.50;4999835;28;65635;-34
2022/01/30 05:13:50;;;;;;;38.20;32.38;;;;;;;31.22;64.00;100969.72;5010628;28;69924;-33
2022/01/30 05:16:46;;;;;;;43.45;32.70;;;;;;;31.25;64.06;100969.28;4992396;28;65643;-34
2022/01/30 05:19:46;;;;;;;37.90;28.88;;;;;;;31.21;63.82;100946.41;5004863;28;70272;-34
2022/01/30 05:22:36;;;;;;;40.65;26.05;;;;;;;31.31;63.72;100952.94;5009687;28;65400;-34
2022/01/30 05:25:26;;;;;;;32.83;25.65;;;;;;;31.33;63.55;100947.31;4995979;28;70226;-33
2022/01/30 05:28:10;;;;;;;32.00;23.25;;;;;;;31.36;63.16;100949.63;5009123;28;65628;-33
2022/01/30 05:31:03;;;;;;;29.73;22.88;;;;;;;31.41;62.93;100943.53;5005890;28;71017;-33
2022/01/30 05:34:03;;;;;;;30.90;22.77;;;;;;;31.44;62.82;100941.22;5001526;28;66108;-34
2022/01/30 05:36:52;;;;;;;32.75;22.00;;;;;;;31.45;63.05;100936.59;5025653;28;69999;-33
2022/01/30 05:39:43;;;;;;;36.25;20.58;;;;;;;31.46;62.64;100933.69;4999759;28;66102;-33
2022/01/30 05:42:32;;;;;;;32.42;21.38;;;;;;;31.49;62.68;100930.53;5013203;28;70268;-34
2022/01/30 05:48:14;;;;;;;44.45;30.23;;;;;;;31.33;63.13;100893.13;5016487;28;69872;-34
2022/01/30 05:51:17;;;;;;;51.10;27.88;;;;;;;31.56;63.01;100922.31;5002430;28;66488;-33
2022/01/30 05:54:04;;;;;;;44.15;26.92;;;;;;;31.57;63.29;100910.44;5012697;28;70095;-35
2022/01/30 05:56:38;;;;;;;32.78;25.33;;;;;;;31.59;61.68;100914.59;5012694;28;67203;-35
2022/01/30 05:59:18;;;;;;;30.70;24.33;;;;;;;31.46;60.32;100901.16;5012886;28;70510;-35
2022/01/30 06:02:07;;;;;;;36.63;24.50;;;;;;;31.34;58.51;100897.47;5012118;28;66529;-35
2022/01/30 06:04:38;;;;;;;29.35;22.75;;;;;;;31.20;57.78;100890.53;5029717;28;70958;-33
2022/01/30 06:07:10;;;;;;;31.98;22.67;;;;;;;31.07;56.32;100884.19;4995987;28;66210;-36
2022/01/30 06:09:42;;;;;;;40.42;24.67;;;;;;;30.98;56.20;100877.41;5011523;28;70103;-35
2022/01/30 06:12:14;;;;;;;39.40;24.63;;;;;;;30.82;55.46;100861.69;5008931;28;66388;-34
2022/01/30 06:14:46;;;;;;;32.15;23.73;;;;;;;30.77;54.61;100859.59;5013813;28;69691;-35
2022/01/30 06:17:23;;;;;;;33.95;23.17;;;;;;;30.67;54.03;100848.41;5029141;28;65668;-34
2022/01/30 06:19:59;;;;;;;26.60;22.17;;;;;;;30.59;53.49;100841.41;5012536;28;70679;-34
2022/01/30 06:22:48;;;;;;;29.38;21.98;;;;;;;30.49;52.50;100841.06;5014143;28;65763;-35
2022/01/30 06:25:37;;;;;;;30.05;21.45;;;;;;;30.40;52.07;100831.56;5013853;28;70824;-34
2022/01/30 06:28:26;;;;;;;27.95;21.70;;;;;;;30.34;51.32;100829.69;5014553;28;66117;-35
2022/01/30 06:31:15;;;;;;;25.48;20.67;;;;;;;30.26;50.54;100826.22;5015750;28;69043;-36
2022/01/30 06:34:04;;;;;;;26.92;19.38;;;;;;;30.21;50.56;100828.72;5016524;28;66741;-34
2022/01/30 06:36:52;;;;;;;27.17;19.60;;;;;;;30.16;49.43;100814.19;5020796;28;70453;-34
2022/01/30 06:39:42;;;;;;;26.05;20.77;;;;;;;30.06;49.46;100806.50;5021649;28;64846;-35
2022/01/30 06:42:23;;;;;;;25.20;19.52;;;;;;;29.85;48.89;100775.22;5017748;28;69942;-35
2022/01/30 06:45:11;;;;;;;26.45;18.83;;;;;;;30.03;48.37;100807.81;5017587;28;66456;-35
2022/01/30 06:48:02;;;;;;;24.50;18.13;;;;;;;29.95;48.41;100807.19;4993780;28;69913;-35
2022/01/30 06:50:55;;;;;;;24.88;18.63;;;;;;;29.95;47.70;100802.66;4987711;28;65307;-34
2022/01/30 06:53:28;;;;;;;21.23;17.70;;;;;;;29.93;48.10;100798.50;5018083;28;70200;-34
2022/01/30 06:56:17;;;;;;;20.27;18.23;;;;;;;29.90;47.69;100788.13;5017948;28;66028;-35
2022/01/30 06:59:06;;;;;;;18.27;16.50;;;;;;;29.89;47.10;100784.56;5019547;28;69939;-34
2022/01/30 07:01:55;;;;;;;18.35;16.52;;;;;;;29.78;47.04;100759.06;5015663;28;66153;-35
2022/01/30 07:04:45;;;;;;;19.48;16.95;;;;;;;29.79;46.91;100754.47;5015598;28;70140;-36
2022/01/30 07:07:30;;;;;;;29.63;16.88;;;;;;;29.81;47.19;100753.22;5017666;28;65727;-34
2022/01/30 07:10:01;;;;;;;19.38;16.50;;;;;;;29.83;49.60;100756.50;5011914;28;70144;-34
2022/01/30 07:12:31;;;;;;;28.13;17.30;;;;;;;29.86;49.55;100743.59;5010954;28;66240;-34
2022/01/30 07:15:02;;;;;;;36.67;17.70;;;;;;;29.89;49.73;100744.00;5016930;28;70050;-34
2022/01/30 07:17:33;;;;;;;32.88;16.90;;;;;;;29.88;49.03;100736.13;5013453;28;66651;-34
2022/01/30 07:20:05;;;;;;;45.40;17.00;;;;;;;29.41;48.40;100644.44;5015004;28;70296;-34
2022/01/30 07:22:36;;;;;;;40.78;15.70;;;;;;;29.75;48.11;100691.88;5013068;28;66287;-34
2022/01/30 07:25:07;;;;;;;35.35;15.48;;;;;;;29.99;48.02;100732.72;5007618;28;70259;-33
2022/01/30 07:27:38;;;;;;;35.78;17.00;;;;;;;29.96;47.97;100722.34;5014706;28;65957;-35
2022/01/30 07:30:09;;;;;;;54.95;16.92;;;;;;;30.04;48.35;100713.97;5012669;28;69970;-35
2022/01/30 07:32:40;;;;;;;46.13;15.93;;;;;;;30.05;48.07;100710.19;5027294;28;65271;-34
2022/01/30 07:35:11;;;;;;;56.78;17.35;;;;;;;30.08;48.45;100709.75;5009475;28;69370;-34
2022/01/30 07:37:41;;;;;;;36.25;16.48;;;;;;;30.05;48.15;100696.69;5017498;28;65350;-33
2022/01/30 07:40:13;;;;;;;37.83;16.35;;;;;;;30.15;48.54;100707.84;5018765;28;70584;-34
2022/01/30 07:42:43;;;;;;;48.90;16.27;;;;;;;30.15;48.41;100701.63;5014908;28;66247;-36
2022/01/30 07:45:17;;;;;;;36.65;16.30;;;;;;;30.03;48.40;100677.97;5013752;28;69993;-35
2022/01/30 07:47:48;;;;;;;51.97;15.07;;;;;;;30.09;49.59;100678.97;5014547;28;65551;-35
2022/01/30 07:50:19;;;;;;;24.70;13.77;;;;;;;30.34;51.54;100697.09;5011260;28;69892;-35
2022/01/30 07:52:49;;;;;;;21.67;14.63;;;;;;;30.50;52.41;100691.94;5014164;28;66678;-35
2022/01/30 07:55:19;;;;;;;23.02;17.17;;;;;;;30.67;55.80;100697.66;5012561;28;70056;-35
2022/01/30 07:57:50;;;;;;;20.27;16.58;;;;;;;30.79;56.57;100695.03;5015264;28;66231;-34
2022/01/30 08:00:21;;;;;;;27.50;17.00;;;;;;;30.89;56.84;100697.22;5012175;28;69798;-34
2022/01/30 08:02:52;;;;;;;29.23;18.75;;;;;;;30.92;57.52;100683.25;5014219;28;65600;-35
2022/01/30 08:05:22;;;;;;;22.60;18.30;;;;;;;31.04;58.05;100684.16;5015001;28;70013;-34
2022/01/30 08:07:53;;;;;;;20.80;18.48;;;;;;;31.15;59.11;100688.81;5014411;28;65499;-34
2022/01/30 08:10:23;;;;;;;25.52;19.10;;;;;;;31.26;58.88;100694.50;5018333;28;70152;-34
2022/01/30 08:12:54;;;;;;;30.35;18.95;;;;;;;31.32;58.92;100689.03;5018663;28;66264;-34
2022/01/30 08:15:25;;;;;;;27.65;18.27;;;;;;;31.42;59.12;100698.53;5016823;28;70165;-34
2022/01/30 08:17:55;;;;;;;29.75;18.33;;;;;;;31.48;59.36;100682.19;5016949;28;65387;-34
2022/01/30 08:20:27;;;;;;;24.65;18.40;;;;;;;31.55;59.66;100682.09;5019028;28;69196;-34
2022/01/30 08:23:00;;;;;;;29.60;18.23;;;;;;;31.60;59.06;100685.75;5016704;28;65374;-35
2022/01/30 08:25:31;;;;;;;23.90;18.23;;;;;;;31.69;59.16;100682.72;5013056;28;69999;-34
2022/01/30 08:28:02;;;;;;;28.33;18.08;;;;;;;31.73;59.29;100678.47;5016716;28;66293;-34
2022/01/30 08:30:32;;;;;;;29.17;17.63;;;;;;;31.78;59.17;100686.75;5016325;28;70460;-34
2022/01/30 08:33:03;;;;;;;29.10;17.30;;;;;;;31.84;59.47;100683.13;5016121;28;66161;-35
2022/01/30 08:35:33;;;;;;;27.20;17.05;;;;;;;31.87;59.59;100685.34;5017493;28;69164;-34
2022/01/30 08:38:04;;;;;;;21.42;17.17;;;;;;;31.87;59.32;100677.22;5018447;28;65369;-35
2022/01/30 08:40:35;;;;;;;28.05;16.75;;;;;;;31.94;59.08;100679.88;5015654;28;70172;-36
2022/01/30 08:43:07;;;;;;;25.15;16.90;;;;;;;31.97;59.34;100674.81;5010061;28;66780;-35
2022/01/30 08:45:38;;;;;;;18.73;16.30;;;;;;;31.98;58.89;100676.47;5015941;28;70283;-34
2022/01/30 08:48:08;;;;;;;24.75;15.85;;;;;;;32.07;58.91;100678.81;5013114;28;65126;-35
2022/01/30 08:50:39;;;;;;;26.77;16.73;;;;;;;32.03;58.79;100673.06;5017572;28;69937;-35
2022/01/30 08:53:15;;;;;;;29.42;16.20;;;;;;;31.87;58.60;100647.38;5017509;28;65568;-35
2022/01/30 08:55:46;;;;;;;26.33;16.27;;;;;;;32.11;58.67;100686.28;5014996;28;69247;-35
2022/01/30 08:58:16;;;;;;;18.58;14.80;;;;;;;32.13;58.58;100694.19;5031581;28;66718;-35
2022/01/30 09:00:47;;;;;;;22.58;15.57;;;;;;;32.12;58.46;100687.09;5011465;28;69632;-35
2022/01/30 09:03:18;;;;;;;29.50;16.05;;;;;;;32.13;59.06;100688.78;5019303;28;66114;-34
2022/01/30 09:05:48;;;;;;;23.85;15.68;;;;;;;32.20;58.88;100700.34;5016439;28;70108;-35
2022/01/30 09:08:20;;;;;;;20.52;16.00;;;;;;;32.20;58.86;100690.28;5012932;28;65583;-34
2022/01/30 09:10:52;;;;;;;;;;;;;;;32.02;59.28;100702.06;4999760;28;69315;-36
2022/01/30 09:13:23;;;;;;;33.28;20.52;;;;;;;32.21;59.10;100691.16;4997552;28;66952;-36
2022/01/30 09:15:58;;;;;;;30.30;20.23;;;;;;;32.19;59.04;100696.78;5015174;28;70503;-35
2022/01/30 09:18:30;;;;;;;32.53;20.08;;;;;;;32.26;59.32;100702.09;5012779;28;65655;-35
2022/01/30 09:21:00;;;;;;;25.77;19.05;;;;;;;32.25;59.28;100703.19;5019104;28;69682;-35
2022/01/30 09:23:31;;;;;;;33.08;17.77;;;;;;;32.19;58.71;100682.41;5020618;28;65785;-35
2022/01/30 09:26:02;;;;;;;28.15;16.05;;;;;;;32.24;58.57;100706.97;5016818;28;71020;-34
2022/01/30 09:28:32;;;;;;;29.90;16.13;;;;;;;32.24;58.50;100696.09;5017726;28;66586;-35
2022/01/30 09:31:03;;;;;;;31.15;16.25;;;;;;;32.24;58.19;100704.25;5020019;28;69736;-35
2022/01/30 09:33:34;;;;;;;24.65;15.20;;;;;;;32.13;58.21;100694.19;5016925;28;65920;-35
2022/01/30 09:36:07;;;;;;;19.15;14.70;;;;;;;32.22;58.17;100714.50;5015874;28;70323;-35
2022/01/30 09:38:37;;;;;;;20.27;14.70;;;;;;;32.19;57.98;100710.38;5017612;28;65296;-35
2022/01/30 09:41:11;;;;;;;17.52;14.85;;;;;;;32.20;58.42;100712.00;5016337;28;70457;-34
2022/01/30 09:43:44;;;;;;;21.42;15.07;;;;;;;32.11;58.51;100707.16;5019960;28;65487;-35
2022/01/30 09:46:17;;;;;;;17.52;14.13;;;;;;;32.17;57.82;100722.50;5016637;28;70025;-36
2022/01/30 09:48:51;;;;;;;19.17;14.80;;;;;;;32.15;57.64;100725.47;5019286;28;66578;-35
2022/01/30 09:51:21;;;;;;;26.98;14.38;;;;;;;32.14;58.60;100728.41;5015430;28;69507;-35
2022/01/30 09:53:52;;;;;;;18.42;14.90;;;;;;;32.14;58.97;100725.69;5017828;28;66247;-34
2022/01/30 09:56:22;;;;;;;29.27;14.98;;;;;;;32.12;58.99;100719.66;5018839;28;69084;-35
2022/01/30 09:58:53;;;;;;;28.85;15.65;;;;;;;32.11;59.82;100723.44;5016519;28;65837;-34
2022/01/30 10:01:30;;;;;;;22.58;16.98;;;;;;;32.11;60.02;100724.28;5017544;28;68581;-35
2022/01/30 10:04:02;;;;;;;27.10;16.35;;;;;;;32.10;59.82;100732.66;5013988;28;65589;-34
2022/01/30 10:07:01;;;;;;;23.08;15.43;;;;;;;31.80;59.75;100701.75;5019283;28;69281;-35
2022/01/30 10:09:36;;;;;;;19.67;14.32;;;;;;;32.06;59.97;100726.84;5019425;28;66733;-35
2022/01/30 10:12:13;;;;;;;24.23;14.55;;;;;;;32.05;60.22;100726.03;5027936;28;69024;-35
2022/01/30 10:15:15;;;;;;;19.00;13.80;;;;;;;32.01;60.32;100738.41;5014522;28;65638;-35
2022/01/30 10:17:50;;;;;;;18.10;13.43;;;;;;;32.02;60.05;100748.19;5019314;28;69639;-35
2022/01/30 10:20:40;;;;;;;16.35;13.10;;;;;;;32.02;60.42;100736.53;5012921;28;65580;-35
2022/01/30 10:23:11;;;;;;;24.25;12.77;;;;;;;31.95;59.99;100733.06;5019680;28;70144;-36
2022/01/30 10:25:48;;;;;;;19.00;12.67;;;;;;;31.97;60.12;100744.53;5018945;28;65844;-34
2022/01/30 10:28:21;;;;;;;15.07;12.25;;;;;;;31.95;60.12;100747.47;5016424;28;69949;-35
2022/01/30 10:30:55;;;;;;;20.13;13.02;;;;;;;31.66;60.01;100704.88;5001397;28;66024;-34
2022/01/30 10:33:50;;;;;;;17.13;12.35;;;;;;;31.82;59.84;100753.06;5018559;28;69746;-36
2022/01/30 10:36:22;;;;;;;17.73;12.00;;;;;;;31.80;60.58;100752.44;5014785;28;65644;-34
2022/01/30 10:39:04;;;;;;;16.83;12.98;;;;;;;31.77;60.29;100758.34;5019296;28;70685;-35
2022/01/30 10:41:37;;;;;;;17.30;13.25;;;;;;;31.54;60.45;100727.34;5018773;28;65692;-34
2022/01/30 10:44:09;;;;;;;17.83;13.43;;;;;;;31.46;60.31;100724.13;5018712;28;69672;-34
2022/01/30 10:46:45;;;;;;;17.77;12.05;;;;;;;31.74;60.56;100766.94;5017645;28;66100;-34
2022/01/30 10:49:21;;;;;;;21.58;12.38;;;;;;;31.48;60.56;100736.41;5012500;28;69949;-35
2022/01/30 10:51:57;;;;;;;16.35;11.65;;;;;;;31.64;60.67;100777.50;5015489;28;66378;-35
2022/01/30 10:54:32;;;;;;;15.15;11.98;;;;;;;31.32;60.78;100732.38;5001256;28;68725;-35
2022/01/30 10:57:10;;;;;;;22.33;12.23;;;;;;;31.62;60.84;100791.25;5020874;28;66792;-34
2022/01/30 10:59:52;;;;;;;13.55;12.15;;;;;;;31.61;61.02;100787.72;5016833;28;70669;-35
2022/01/30 11:02:24;;;;;;;14.57;12.27;;;;;;;31.48;61.06;100778.94;5014667;28;65574;-34
2022/01/30 11:05:06;;;;;;;18.73;13.30;;;;;;;31.59;60.36;100808.84;5014258;28;70689;-35
2022/01/30 11:07:38;;;;;;;21.70;13.63;;;;;;;31.55;60.04;100804.09;5017801;28;66704;-34
2022/01/30 11:10:15;;;;;;;15.95;13.15;;;;;;;31.53;60.04;100809.72;5016553;28;70343;-35
2022/01/30 11:12:56;;;;;;;22.13;13.57;;;;;;;31.51;60.30;100808.28;5017070;28;66364;-34
2022/01/30 11:18:00;;;;;;;15.73;12.70;;;;;;;31.15;60.05;100775.53;5008862;28;66077;-35
2022/01/30 11:20:34;;;;;;;19.73;12.27;;;;;;;31.39;59.77;100830.72;5007715;28;69812;-35
2022/01/30 11:23:12;;;;;;;14.27;12.15;;;;;;;31.12;60.18;100803.06;5016737;28;66531;-35
2022/01/30 11:25:44;;;;;;;22.05;11.65;;;;;;;30.81;59.95;100759.81;5016031;28;70423;-35
2022/01/30 11:28:17;;;;;;;19.42;12.50;;;;;;;31.26;59.88;100840.84;5014507;28;65756;-36
2022/01/30 11:30:52;;;;;;;15.38;12.07;;;;;;;31.21;59.52;100840.72;5017381;28;70107;-35
2022/01/30 11:33:23;;;;;;;13.88;11.50;;;;;;;31.24;60.51;100848.41;5017150;28;66656;-35
2022/01/30 11:35:54;;;;;;;14.82;10.38;;;;;;;31.14;61.13;100830.75;5001979;28;69497;-35
2022/01/30 11:38:24;;;;;;;23.87;11.73;;;;;;;31.31;61.50;100857.28;5015694;28;65065;-36
2022/01/30 11:41:15;;;;;;;15.45;11.07;;;;;;;31.32;61.59;100856.25;5016489;28;70623;-35
2022/01/30 11:44:19;;;;;;;11.65;10.48;;;;;;;31.34;61.86;100859.53;5013836;28;66166;-35
2022/01/30 11:46:56;;;;;;;16.63;12.07;;;;;;;31.41;61.45;100882.03;5015769;28;69422;-35
2022/01/30 11:49:38;;;;;;;24.17;12.35;;;;;;;31.15;61.78;100829.72;4992513;28;65872;-35
2022/01/30 11:52:11;;;;;;;17.70;12.05;;;;;;;31.35;60.96;100855.78;5011078;28;69926;-36
2022/01/30 11:54:51;;;;;;;17.40;11.05;;;;;;;31.32;61.29;100867.06;5014198;28;65781;-35
2022/01/30 11:57:21;;;;;;;17.92;11.00;;;;;;;31.30;61.03;100871.88;5015873;28;69346;-36
2022/01/30 12:00:00;;;;;;;12.48;11.02;;;;;;;31.31;61.66;100876.25;5017314;28;64883;-35
2022/01/30 12:02:40;;;;;;;19.27;11.25;;;;;;;31.33;62.30;100874.16;4998893;28;69963;-36
2022/01/30 12:05:10;;;;;;;17.23;10.95;;;;;;;31.32;62.46;100862.47;5014397;28;65246;-36
2022/01/30 12:07:46;;;;;;;13.50;11.45;;;;;;;31.41;62.41;100876.59;5015331;28;69088;-36
2022/01/30 12:10:16;;;;;;;12.25;10.75;;;;;;;31.42;63.01;100883.66;5014761;28;66568;-35
2022/01/30 12:12:54;;;;;;;16.98;11.38;;;;;;;31.46;63.12;100887.59;5017276;28;70067;-36
2022/01/30 12:15:47;;;;;;;20.67;11.70;;;;;;;31.41;62.84;100882.03;5015683;28;65991;-35
2022/01/30 12:18:46;;;;;;;15.60;12.27;;;;;;;31.42;62.54;100882.84;5010958;28;70687;-35
2022/01/30 12:21:17;;;;;;;18.65;12.27;;;;;;;31.41;61.46;100882.03;5013724;28;64975;-35
2022/01/30 12:23:47;;;;;;;18.98;12.50;;;;;;;31.37;61.73;100891.63;4997180;28;69134;-35
2022/01/30 12:26:19;;;;;;;19.27;11.60;;;;;;;31.29;62.14;100889.22;5020535;28;65989;-35
2022/01/30 12:28:54;;;;;;;12.40;11.23;;;;;;;31.34;62.35;100902.91;5012946;28;69701;-35
2022/01/30 12:31:38;;;;;;;19.02;10.88;;;;;;;31.27;63.24;100897.56;4988794;28;66046;-35
2022/01/30 12:34:16;;;;;;;14.68;11.00;;;;;;;31.32;63.21;100910.44;5015192;28;70107;-35
2022/01/30 12:36:54;;;;;;;22.20;11.35;;;;;;;31.33;63.49;100904.78;5014921;28;66014;-35
2022/01/30 12:39:25;;;;;;;22.20;11.32;;;;;;;31.34;63.77;100921.88;4995366;28;70402;-34
2022/01/30 12:41:55;;;;;;;17.45;11.00;;;;;;;31.35;63.93;100918.13;5012978;28;65889;-35
2022/01/30 12:44:30;;;;;;;15.93;10.15;;;;;;;31.37;63.58;100913.31;5013509;28;70816;-34
2022/01/30 12:47:01;;;;;;;18.55;10.88;;;;;;;31.35;63.76;100923.53;5014683;28;66132;-34
2022/01/30 12:49:39;;;;;;;13.80;10.60;;;;;;;31.33;63.89;100928.34;5016060;28;69143;-35
2022/01/30 12:52:20;;;;;;;18.92;10.82;;;;;;;31.32;64.11;100932.13;5030280;28;66096;-35
2022/01/30 12:54:52;;;;;;;14.10;10.47;;;;;;;31.30;64.37;100931.50;4994480;28;69879;-35
2022/01/30 12:57:22;;;;;;;;;;;;;;;31.12;65.38;100926.84;5012320;28;66868;-35
2022/01/30 12:59:58;;;;;;;26.02;11.45;;;;;;;31.32;65.47;100937.56;5008651;28;69311;-37